createdAt,value
2023-05-10T00:00:21.438Z,97.43
2023-05-10T00:01:23.080Z,97.26
2023-05-10T00:02:27.936Z,97.33
2023-05-10T00:03:29.650Z,97.23
2023-05-10T00:04:31.268Z,97.44
2023-05-10T00:05:33.440Z,97.20
2023-05-10T00:06:35.479Z,97.19
2023-05-10T00:07:37.091Z,97.63
2023-05-10T00:08:38.808Z,97.82
2023-05-10T00:09:41.040Z,97.35
2023-05-10T00:10:42.630Z,97.08
2023-05-10T00:11:44.226Z,96.97
2023-05-10T00:12:45.787Z,96.16
2023-05-10T00:13:47.380Z,96.29
2023-05-10T00:14:48.968Z,96.58
2023-05-10T00:15:51.549Z,97.04
2023-05-10T00:16:53.297Z,96.76
2023-05-10T00:17:55.099Z,96.82
2023-05-10T00:18:56.708Z,97.48
2023-05-10T00:19:58.553Z,97.01
2023-05-10T00:21:00.409Z,96.23
2023-05-10T00:22:02.568Z,97.29
2023-05-10T00:23:04.200Z,96.64
2023-05-10T00:24:06.018Z,96.27
2023-05-10T00:25:08.579Z,97.66
2023-05-10T00:26:10.179Z,96.80
2023-05-10T00:27:13.013Z,97.13
2023-05-10T00:28:14.817Z,96.65
2023-05-10T00:29:16.432Z,96.17
2023-05-10T00:30:18.374Z,96.60
2023-05-10T00:31:20.208Z,97.16
2023-05-10T00:32:21.984Z,96.55
2023-05-10T00:33:23.621Z,96.42
2023-05-10T00:34:25.718Z,96.53
2023-05-10T00:35:27.705Z,96.33
2023-05-10T00:36:29.442Z,96.52
2023-05-10T00:37:31.088Z,96.15
2023-05-10T00:38:33.011Z,96.46
2023-05-10T00:39:34.614Z,96.80
2023-05-10T00:40:37.999Z,96.95
2023-05-10T00:41:43.237Z,97.77
2023-05-10T00:42:44.867Z,97.20
2023-05-10T00:43:46.524Z,97.16
2023-05-10T00:44:48.166Z,96.89
2023-05-10T00:45:49.793Z,96.22
2023-05-10T00:46:51.949Z,96.79
2023-05-10T00:47:56.242Z,95.80
2023-05-10T00:48:58.221Z,96.76
2023-05-10T00:50:01.598Z,95.74
2023-05-10T00:51:03.451Z,95.42
2023-05-10T00:52:05.121Z,96.23
2023-05-10T00:53:06.925Z,96.74
2023-05-10T00:54:08.511Z,96.07
2023-05-10T00:55:11.168Z,95.58
2023-05-10T00:56:13.385Z,95.57
2023-05-10T00:57:15.065Z,96.47
2023-05-10T00:58:16.631Z,96.10
2023-05-10T00:59:18.752Z,95.35
2023-05-10T01:00:20.713Z,95.87
2023-05-10T01:01:22.428Z,95.31
2023-05-10T01:02:24.168Z,95.70
2023-05-10T01:03:26.565Z,95.72
2023-05-10T01:04:28.180Z,96.56
2023-05-10T01:05:29.806Z,96.42
2023-05-10T01:06:33.270Z,95.41
2023-05-10T01:07:34.911Z,95.45
2023-05-10T01:08:37.270Z,96.18
2023-05-10T01:09:38.880Z,96.15
2023-05-10T01:10:40.541Z,96.43
2023-05-10T01:11:43.313Z,95.83
2023-05-10T01:12:46.506Z,95.96
2023-05-10T01:13:53.727Z,95.77
2023-05-10T01:14:55.452Z,95.69
2023-05-10T01:15:57.461Z,96.05
2023-05-10T01:16:59.343Z,95.85
2023-05-10T01:18:01.447Z,96.31
2023-05-10T01:19:07.808Z,96.64
2023-05-10T01:20:10.657Z,96.02
2023-05-10T01:21:34.550Z,96.66
2023-05-10T01:22:44.184Z,95.73
2023-05-10T01:24:20.233Z,96.00
2023-05-10T01:25:34.135Z,95.89
2023-05-10T01:26:38.752Z,97.12
2023-05-10T01:27:56.604Z,95.69
2023-05-10T01:29:17.300Z,95.39
2023-05-10T01:30:30.913Z,95.67
2023-05-10T01:32:09.528Z,95.55
2023-05-10T01:33:19.278Z,95.95
2023-05-10T01:34:26.564Z,97.26
2023-05-10T01:35:40.240Z,95.03
2023-05-10T01:36:47.667Z,95.87
2023-05-10T01:38:18.821Z,95.55
2023-05-10T01:39:42.269Z,95.70
2023-05-10T01:40:56.588Z,97.10
2023-05-10T01:42:15.497Z,95.96
2023-05-10T01:43:23.094Z,95.36
2023-05-10T01:44:30.181Z,95.43
2023-05-10T01:45:38.897Z,95.98
2023-05-10T01:46:41.380Z,96.16
2023-05-10T01:47:44.975Z,95.86
2023-05-10T01:48:55.584Z,95.03
2023-05-10T01:49:58.414Z,95.45
2023-05-10T01:51:00.004Z,95.88
2023-05-10T01:52:15.259Z,95.52
2023-05-10T01:53:19.861Z,96.30
2023-05-10T01:54:22.858Z,96.41
2023-05-10T01:55:27.385Z,97.54
2023-05-10T01:56:31.997Z,96.31
2023-05-10T01:57:35.568Z,96.42
2023-05-10T01:58:37.503Z,95.94
2023-05-10T01:59:41.830Z,96.70
2023-05-10T02:00:46.599Z,95.53
2023-05-10T02:01:48.670Z,95.51
2023-05-10T02:02:50.937Z,96.27
2023-05-10T02:03:52.977Z,96.12
2023-05-10T02:04:55.336Z,96.03
2023-05-10T02:05:57.445Z,96.71
2023-05-10T02:06:59.004Z,95.95
2023-05-10T02:08:02.237Z,96.94
2023-05-10T02:09:05.219Z,96.21
2023-05-10T02:10:08.529Z,96.47
2023-05-10T02:11:12.202Z,96.47
2023-05-10T02:12:14.301Z,95.60
2023-05-10T02:13:17.154Z,96.36
2023-05-10T02:14:19.583Z,96.52
2023-05-10T02:15:24.299Z,96.19
2023-05-10T02:16:27.478Z,96.87
2023-05-10T02:17:29.882Z,97.76
2023-05-10T02:18:32.101Z,96.81
2023-05-10T02:19:33.987Z,96.75
2023-05-10T02:20:35.994Z,96.24
2023-05-10T02:21:38.856Z,96.24
2023-05-10T02:22:41.614Z,96.75
2023-05-10T02:23:43.845Z,96.44
2023-05-10T02:24:46.310Z,97.24
2023-05-10T02:25:48.319Z,97.84
2023-05-10T02:26:50.975Z,97.07
2023-05-10T02:27:55.698Z,96.49
2023-05-10T02:28:57.436Z,97.18
2023-05-10T02:29:59.137Z,97.26
2023-05-10T02:31:01.041Z,97.13
2023-05-10T02:32:03.466Z,96.58
2023-05-10T02:33:06.549Z,96.95
2023-05-10T02:34:09.331Z,96.79
2023-05-10T02:35:11.475Z,96.72
2023-05-10T02:36:13.938Z,97.38
2023-05-10T02:37:15.845Z,97.48
2023-05-10T02:38:18.159Z,97.70
2023-05-10T02:39:22.903Z,97.54
2023-05-10T02:40:26.162Z,97.22
2023-05-10T02:41:32.247Z,96.92
2023-05-10T02:42:37.431Z,97.02
2023-05-10T02:43:40.819Z,97.30
2023-05-10T02:44:42.907Z,96.93
2023-05-10T02:45:44.918Z,97.02
2023-05-10T02:46:46.722Z,97.05
2023-05-10T02:47:49.193Z,97.25
2023-05-10T02:48:50.851Z,97.43
2023-05-10T02:49:52.470Z,97.40
2023-05-10T02:50:56.166Z,97.29
2023-05-10T02:52:02.429Z,97.19
2023-05-10T02:53:12.565Z,97.27
2023-05-10T02:54:20.334Z,97.49
2023-05-10T02:55:28.156Z,97.04
2023-05-10T02:56:37.223Z,97.13
2023-05-10T02:57:42.851Z,96.74
2023-05-10T02:58:44.457Z,96.39
2023-05-10T02:59:47.049Z,96.49
2023-05-10T03:00:48.768Z,96.33
2023-05-10T03:01:50.494Z,96.97
2023-05-10T03:02:52.290Z,96.51
2023-05-10T03:03:54.409Z,96.75
2023-05-10T03:04:56.189Z,96.94
2023-05-10T03:05:58.921Z,97.31
2023-05-10T03:07:00.731Z,97.03
2023-05-10T03:08:05.135Z,97.19
2023-05-10T03:09:08.777Z,97.53
2023-05-10T03:10:12.102Z,97.79
2023-05-10T03:11:53.058Z,98.63
2023-05-10T03:13:08.831Z,98.15
2023-05-10T03:14:35.963Z,97.95
2023-05-10T03:15:56.344Z,98.45
2023-05-10T03:17:02.289Z,99.24
2023-05-10T03:18:13.186Z,99.34
2023-05-10T03:19:34.105Z,98.85
2023-05-10T03:20:49.382Z,99.68
2023-05-10T03:21:52.595Z,98.71
2023-05-10T03:23:01.094Z,99.19
2023-05-10T03:24:09.283Z,99.75
2023-05-10T03:25:13.419Z,99.93
2023-05-10T03:26:18.999Z,99.76
2023-05-10T03:27:21.416Z,99.37
2023-05-10T03:28:26.205Z,99.35
2023-05-10T03:29:27.931Z,99.21
2023-05-10T03:30:30.576Z,98.96
2023-05-10T03:31:32.616Z,99.58
2023-05-10T03:32:35.816Z,100.00
2023-05-10T03:33:38.341Z,99.41
2023-05-10T03:34:44.362Z,99.43
2023-05-10T03:35:46.785Z,99.47
2023-05-10T03:36:49.280Z,99.07
2023-05-10T03:37:50.884Z,99.49
2023-05-10T03:38:52.588Z,99.38
2023-05-10T03:39:54.346Z,99.30
2023-05-10T03:40:56.710Z,99.30
2023-05-10T03:41:58.409Z,99.54
2023-05-10T03:43:00.310Z,99.04
2023-05-10T03:44:01.984Z,99.04
2023-05-10T03:45:04.263Z,99.37
2023-05-10T03:46:06.593Z,99.03
2023-05-10T03:47:09.191Z,98.79
2023-05-10T03:48:11.002Z,99.35
2023-05-10T03:49:13.069Z,98.97
2023-05-10T03:50:16.847Z,99.27
2023-05-10T03:51:18.808Z,99.56
2023-05-10T03:52:20.425Z,99.01
2023-05-10T03:53:23.761Z,99.05
2023-05-10T03:54:25.356Z,99.22
2023-05-10T03:55:27.109Z,99.21
2023-05-10T03:56:28.677Z,99.42
2023-05-10T03:57:30.478Z,98.96
2023-05-10T03:58:32.044Z,98.96
2023-05-10T03:59:33.859Z,99.15
2023-05-10T04:00:36.174Z,98.79
2023-05-10T04:01:37.982Z,98.85
2023-05-10T04:02:39.702Z,98.61
2023-05-10T04:03:41.673Z,98.32
2023-05-10T04:04:43.352Z,97.80
2023-05-10T04:05:45.035Z,97.93
2023-05-10T04:06:47.377Z,98.51
2023-05-10T04:07:50.316Z,98.69
2023-05-10T04:08:51.880Z,99.20
2023-05-10T04:09:53.547Z,98.46
2023-05-10T04:11:10.480Z,98.64
2023-05-10T04:12:12.087Z,98.67
2023-05-10T04:13:13.745Z,98.77
2023-05-10T04:14:15.385Z,99.08
2023-05-10T04:15:17.110Z,99.56
2023-05-10T04:16:18.729Z,99.48
2023-05-10T04:17:20.370Z,99.54
2023-05-10T04:18:21.956Z,99.52
2023-05-10T04:19:23.656Z,99.47
2023-05-10T04:20:25.384Z,99.33
2023-05-10T04:21:26.978Z,99.08
2023-05-10T04:22:30.041Z,98.42
2023-05-10T04:23:31.616Z,98.24
2023-05-10T04:24:33.324Z,98.82
2023-05-10T04:25:36.353Z,99.22
2023-05-10T04:26:37.970Z,99.26
2023-05-10T04:27:39.543Z,99.65
2023-05-10T04:28:41.192Z,99.62
2023-05-10T04:29:42.842Z,99.61
2023-05-10T04:30:44.462Z,100.00
2023-05-10T04:31:46.071Z,99.50
2023-05-10T04:32:47.683Z,99.69
2023-05-10T04:33:49.406Z,99.38
2023-05-10T04:34:52.252Z,99.44
2023-05-10T04:35:53.840Z,99.93
2023-05-10T04:36:55.479Z,99.64
2023-05-10T04:37:57.075Z,99.39
2023-05-10T04:38:58.927Z,98.90
2023-05-10T04:40:01.132Z,99.17
2023-05-10T04:41:07.485Z,98.75
2023-05-10T04:42:09.353Z,98.90
2023-05-10T04:43:10.941Z,99.26
2023-05-10T04:44:12.603Z,98.60
2023-05-10T04:45:15.691Z,98.50
2023-05-10T04:46:17.530Z,99.59
2023-05-10T04:47:19.269Z,97.35
2023-05-10T04:48:20.949Z,97.59
2023-05-10T04:49:22.735Z,95.90
2023-05-10T04:50:24.365Z,95.65
2023-05-10T04:51:26.110Z,95.45
2023-05-10T04:52:27.663Z,95.54
2023-05-10T04:53:29.269Z,95.28
2023-05-10T04:54:30.871Z,94.93
2023-05-10T04:55:32.493Z,95.71
2023-05-10T04:56:34.339Z,95.47
2023-05-10T04:57:35.974Z,94.84
2023-05-10T04:58:37.689Z,94.24
2023-05-10T04:59:39.238Z,94.16
2023-05-10T05:00:40.890Z,95.26
2023-05-10T05:01:42.572Z,96.04
2023-05-10T05:02:47.540Z,95.61
2023-05-10T05:03:49.262Z,94.11
2023-05-10T05:04:50.910Z,92.81
2023-05-10T05:05:52.546Z,93.28
2023-05-10T05:06:54.215Z,93.31
2023-05-10T05:07:55.783Z,94.30
2023-05-10T05:08:57.478Z,94.02
2023-05-10T05:09:59.067Z,93.45
2023-05-10T05:11:00.696Z,94.37
2023-05-10T05:12:02.564Z,94.02
2023-05-10T05:13:04.181Z,93.32
2023-05-10T05:14:05.906Z,93.63
2023-05-10T05:15:09.878Z,94.04
2023-05-10T05:16:12.474Z,94.28
2023-05-10T05:17:14.188Z,91.58
2023-05-10T05:18:15.772Z,92.25
2023-05-10T05:19:17.344Z,92.62
2023-05-10T05:20:19.991Z,91.84
2023-05-10T05:21:22.486Z,93.21
2023-05-10T05:22:28.776Z,92.54
2023-05-10T05:23:31.145Z,91.97
2023-05-10T05:24:35.899Z,93.72
2023-05-10T05:25:37.693Z,92.75
2023-05-10T05:26:39.495Z,93.21
2023-05-10T05:27:41.072Z,92.70
2023-05-10T05:28:42.843Z,93.02
2023-05-10T05:29:44.427Z,92.83
2023-05-10T05:30:46.483Z,90.45
2023-05-10T05:31:48.091Z,91.55
2023-05-10T05:32:49.745Z,91.57
2023-05-10T05:33:51.379Z,90.09
2023-05-10T05:34:52.970Z,89.35
2023-05-10T05:35:54.579Z,91.87
2023-05-10T05:36:56.377Z,91.06
2023-05-10T05:37:58.197Z,91.43
2023-05-10T05:38:59.784Z,92.54
2023-05-10T05:40:02.684Z,92.00
2023-05-10T05:41:04.476Z,91.79
2023-05-10T05:42:06.126Z,91.15
2023-05-10T05:43:07.692Z,89.66
2023-05-10T05:44:09.423Z,90.27
2023-05-10T05:45:14.125Z,89.75
2023-05-10T05:46:16.096Z,91.29
2023-05-10T05:47:17.738Z,90.83
2023-05-10T05:48:19.394Z,90.10
2023-05-10T05:49:20.949Z,90.01
2023-05-10T05:50:22.522Z,89.92
2023-05-10T05:51:24.177Z,89.91
2023-05-10T05:52:25.783Z,90.37
2023-05-10T05:53:27.488Z,89.16
2023-05-10T05:54:29.312Z,90.10
2023-05-10T05:55:32.511Z,89.82
2023-05-10T05:56:34.208Z,91.05
2023-05-10T05:57:35.839Z,91.55
2023-05-10T05:58:37.405Z,89.65
2023-05-10T05:59:44.848Z,88.00
2023-05-10T06:00:46.511Z,87.99
2023-05-10T06:01:48.336Z,89.30
2023-05-10T06:02:49.990Z,89.25
2023-05-10T06:03:53.306Z,89.74
2023-05-10T06:04:55.172Z,89.43
2023-05-10T06:05:56.781Z,90.26
2023-05-10T06:06:58.328Z,88.64
2023-05-10T06:08:01.052Z,90.08
2023-05-10T06:09:02.637Z,90.03
2023-05-10T06:10:04.537Z,89.85
2023-05-10T06:11:06.161Z,90.41
2023-05-10T06:12:07.778Z,89.39
2023-05-10T06:13:09.540Z,88.55
2023-05-10T06:14:11.258Z,88.88
2023-05-10T06:15:12.978Z,89.04
2023-05-10T06:16:14.713Z,89.71
2023-05-10T06:17:16.331Z,89.17
2023-05-10T06:18:18.338Z,89.66
2023-05-10T06:19:19.910Z,88.48
2023-05-10T06:20:21.531Z,88.25
2023-05-10T06:21:23.477Z,88.61
2023-05-10T06:22:25.146Z,88.77
2023-05-10T06:23:27.413Z,87.84
2023-05-10T06:24:29.146Z,86.56
2023-05-10T06:25:30.720Z,86.59
2023-05-10T06:26:32.383Z,87.04
2023-05-10T06:27:33.949Z,87.09
2023-05-10T06:28:35.558Z,87.21
2023-05-10T06:29:37.101Z,86.98
2023-05-10T06:30:38.689Z,84.97
2023-05-10T06:31:40.473Z,85.96
2023-05-10T06:32:42.513Z,84.90
2023-05-10T06:33:44.177Z,85.78
2023-05-10T06:34:45.858Z,85.71
2023-05-10T06:35:47.466Z,85.14
2023-05-10T06:36:49.071Z,83.93
2023-05-10T06:37:51.089Z,85.26
2023-05-10T06:38:52.872Z,87.20
2023-05-10T06:39:54.527Z,85.01
2023-05-10T06:40:56.133Z,84.69
2023-05-10T06:41:57.758Z,84.31
2023-05-10T06:43:07.191Z,84.06
2023-05-10T06:44:09.445Z,84.51
2023-05-10T06:45:11.641Z,83.59
2023-05-10T06:46:13.290Z,84.31
2023-05-10T06:47:14.896Z,83.41
2023-05-10T06:48:16.511Z,83.37
2023-05-10T06:49:18.292Z,82.42
2023-05-10T06:50:19.914Z,81.30
2023-05-10T06:51:22.296Z,80.89
2023-05-10T06:52:24.419Z,82.34
2023-05-10T06:53:26.059Z,80.37
2023-05-10T06:54:27.625Z,80.45
2023-05-10T06:55:30.144Z,80.22
2023-05-10T06:56:32.014Z,80.39
2023-05-10T06:57:33.602Z,77.65
2023-05-10T06:58:35.197Z,77.39
2023-05-10T06:59:37.491Z,77.11
2023-05-10T07:00:41.582Z,76.85
2023-05-10T07:01:43.750Z,74.95
2023-05-10T07:02:45.605Z,74.77
2023-05-10T07:03:47.336Z,73.52
2023-05-10T07:04:49.254Z,70.93
2023-05-10T07:05:51.105Z,70.89
2023-05-10T07:06:52.711Z,71.56
2023-05-10T07:07:54.880Z,68.17
2023-05-10T07:08:56.536Z,69.63
2023-05-10T07:09:58.744Z,70.03
2023-05-10T07:11:02.378Z,70.17
2023-05-10T07:12:04.354Z,69.44
2023-05-10T07:13:06.172Z,69.56
2023-05-10T07:14:07.832Z,69.33
2023-05-10T07:15:10.311Z,69.51
2023-05-10T07:16:12.216Z,69.10
2023-05-10T07:17:13.856Z,68.64
2023-05-10T07:18:15.607Z,68.97
2023-05-10T07:19:17.179Z,69.15
2023-05-10T07:20:18.943Z,68.03
2023-05-10T07:21:20.581Z,69.39
2023-05-10T07:22:22.188Z,69.54
2023-05-10T07:23:23.848Z,70.96
2023-05-10T07:24:25.412Z,72.32
2023-05-10T07:25:27.154Z,71.08
2023-05-10T07:26:28.780Z,71.49
2023-05-10T07:27:30.520Z,73.26
2023-05-10T07:28:32.134Z,72.71
2023-05-10T07:29:33.922Z,72.86
2023-05-10T07:30:35.771Z,73.21
2023-05-10T07:31:37.482Z,72.73
2023-05-10T07:32:40.558Z,73.15
2023-05-10T07:33:42.684Z,74.67
2023-05-10T07:34:44.336Z,73.06
2023-05-10T07:35:45.988Z,74.17
2023-05-10T07:36:47.552Z,73.29
2023-05-10T07:37:49.161Z,74.08
2023-05-10T07:38:50.786Z,74.03
2023-05-10T07:39:52.337Z,75.51
2023-05-10T07:40:53.905Z,73.69
2023-05-10T07:41:56.055Z,75.19
2023-05-10T07:42:57.655Z,75.44
2023-05-10T07:43:59.267Z,73.25
2023-05-10T07:45:00.841Z,72.77
2023-05-10T07:46:02.629Z,72.16
2023-05-10T07:47:04.285Z,73.92
2023-05-10T07:48:06.242Z,70.80
2023-05-10T07:49:07.864Z,74.17
2023-05-10T07:50:09.637Z,74.53
2023-05-10T07:51:11.721Z,73.12
2023-05-10T07:52:13.309Z,74.14
2023-05-10T07:53:14.945Z,75.01
2023-05-10T07:54:16.896Z,74.37
2023-05-10T07:55:19.651Z,75.63
2023-05-10T07:56:24.254Z,74.34
2023-05-10T07:57:25.921Z,75.36
2023-05-10T07:58:27.847Z,75.36
2023-05-10T07:59:29.496Z,75.22
2023-05-10T08:00:31.148Z,76.12
2023-05-10T08:01:33.683Z,74.96
2023-05-10T08:02:36.596Z,76.51
2023-05-10T08:03:38.423Z,74.96
2023-05-10T08:04:40.098Z,76.27
2023-05-10T08:05:41.988Z,76.18
2023-05-10T08:06:43.559Z,77.22
2023-05-10T08:07:45.164Z,77.54
2023-05-10T08:08:50.389Z,75.88
2023-05-10T08:09:51.989Z,77.94
2023-05-10T08:10:53.574Z,75.64
2023-05-10T08:11:56.309Z,75.48
2023-05-10T08:12:59.672Z,74.79
2023-05-10T08:14:01.327Z,74.20
2023-05-10T08:15:03.188Z,75.13
2023-05-10T08:16:04.900Z,75.52
2023-05-10T08:17:06.819Z,75.70
2023-05-10T08:18:08.422Z,77.13
2023-05-10T08:19:10.128Z,75.46
2023-05-10T08:20:13.810Z,76.06
2023-05-10T08:21:16.158Z,75.74
2023-05-10T08:22:17.948Z,75.41
2023-05-10T08:23:19.729Z,76.63
2023-05-10T08:24:21.439Z,76.52
2023-05-10T08:25:22.998Z,76.42
2023-05-10T08:26:24.660Z,74.90
2023-05-10T08:27:26.407Z,75.75
2023-05-10T08:28:28.232Z,74.79
2023-05-10T08:29:32.882Z,75.87
2023-05-10T08:30:40.396Z,73.72
2023-05-10T08:31:42.026Z,74.95
2023-05-10T08:32:43.645Z,74.99
2023-05-10T08:33:45.621Z,74.58
2023-05-10T08:34:47.286Z,73.92
2023-05-10T08:35:49.067Z,73.88
2023-05-10T08:36:50.774Z,72.83
2023-05-10T08:37:52.425Z,72.20
2023-05-10T08:38:54.769Z,72.26
2023-05-10T08:39:56.257Z,72.37
2023-05-10T08:40:58.081Z,72.98
2023-05-10T08:42:01.647Z,70.31
2023-05-10T08:43:10.541Z,70.00
2023-05-10T08:44:12.254Z,68.35
2023-05-10T08:45:14.675Z,69.70
2023-05-10T08:46:18.896Z,69.67
2023-05-10T08:47:21.159Z,69.98
2023-05-10T08:48:24.464Z,69.70
2023-05-10T08:49:28.575Z,69.70
2023-05-10T08:50:30.799Z,69.14
2023-05-10T08:51:37.625Z,67.33
2023-05-10T08:52:42.664Z,68.21
2023-05-10T08:53:45.086Z,68.08
2023-05-10T08:54:46.628Z,66.94
2023-05-10T08:55:48.234Z,66.12
2023-05-10T08:56:50.049Z,66.74
2023-05-10T08:57:51.710Z,67.02
2023-05-10T08:58:53.632Z,67.88
2023-05-10T08:59:55.296Z,68.22
2023-05-10T09:00:57.179Z,67.99
2023-05-10T09:01:59.629Z,68.57
2023-05-10T09:03:02.019Z,67.16
2023-05-10T09:04:05.308Z,67.54
2023-05-10T09:05:07.716Z,65.90
2023-05-10T09:06:09.386Z,62.77
2023-05-10T09:07:11.624Z,60.49
2023-05-10T09:08:14.019Z,60.49
2023-05-10T09:09:15.934Z,61.98
2023-05-10T09:10:17.814Z,60.63
2023-05-10T09:11:21.364Z,60.04
2023-05-10T09:12:23.505Z,56.61
2023-05-10T09:13:25.721Z,55.42
2023-05-10T09:14:27.790Z,56.79
2023-05-10T09:15:29.398Z,56.79
2023-05-10T09:16:31.042Z,55.56
2023-05-10T09:17:32.919Z,57.21
2023-05-10T09:18:34.574Z,58.79
2023-05-10T09:19:36.161Z,60.13
2023-05-10T09:20:37.749Z,60.25
2023-05-10T09:21:39.628Z,60.50
2023-05-10T09:22:41.736Z,61.38
2023-05-10T09:23:48.676Z,62.38
2023-05-10T09:25:07.737Z,63.29
2023-05-10T09:26:09.315Z,64.20
2023-05-10T09:27:10.891Z,64.25
2023-05-10T09:28:12.861Z,64.71
2023-05-10T09:29:16.037Z,63.06
2023-05-10T09:30:25.916Z,63.36
2023-05-10T09:31:48.162Z,64.50
2023-05-10T09:32:49.943Z,63.00
2023-05-10T09:33:52.075Z,63.01
2023-05-10T09:34:53.725Z,64.28
2023-05-10T09:35:55.330Z,64.26
2023-05-10T09:36:58.630Z,65.40
2023-05-10T09:38:03.285Z,64.37
2023-05-10T09:39:05.193Z,65.28
2023-05-10T09:40:08.506Z,66.44
2023-05-10T09:41:21.030Z,66.26
2023-05-10T09:42:23.829Z,68.30
2023-05-10T09:43:25.484Z,67.38
2023-05-10T09:44:27.439Z,68.05
2023-05-10T09:45:31.520Z,65.44
2023-05-10T09:46:37.080Z,64.16
2023-05-10T09:47:38.807Z,67.17
2023-05-10T09:48:48.556Z,66.16
2023-05-10T09:49:51.781Z,67.57
2023-05-10T09:50:59.300Z,68.38
2023-05-10T09:52:08.273Z,67.17
2023-05-10T09:53:09.873Z,68.44
2023-05-10T09:54:16.989Z,66.55
2023-05-10T09:55:20.987Z,67.11
2023-05-10T09:56:40.019Z,68.01
2023-05-10T09:57:43.089Z,65.97
2023-05-10T09:58:44.750Z,68.06
2023-05-10T09:59:46.613Z,67.76
2023-05-10T10:00:53.196Z,71.03
2023-05-10T10:01:58.232Z,70.92
2023-05-10T10:03:01.025Z,70.31
2023-05-10T10:04:08.344Z,69.56
2023-05-10T10:05:10.172Z,70.63
2023-05-10T10:06:26.466Z,70.60
2023-05-10T10:07:31.524Z,70.77
2023-05-10T10:08:33.127Z,70.23
2023-05-10T10:09:36.065Z,68.97
2023-05-10T10:10:37.939Z,67.06
2023-05-10T10:11:39.981Z,66.57
2023-05-10T10:12:42.424Z,65.14
2023-05-10T10:13:44.231Z,63.53
2023-05-10T10:14:47.807Z,64.48
2023-05-10T10:15:52.247Z,61.28
2023-05-10T10:17:06.802Z,60.51
2023-05-10T10:18:14.062Z,58.82
2023-05-10T10:19:16.271Z,58.74
2023-05-10T10:20:19.672Z,58.42
2023-05-10T10:21:21.703Z,58.17
2023-05-10T10:22:23.265Z,58.81
2023-05-10T10:23:24.990Z,58.74
2023-05-10T10:24:26.555Z,60.11
2023-05-10T10:25:28.206Z,60.90
2023-05-10T10:26:29.945Z,59.75
2023-05-10T10:27:41.056Z,60.66
2023-05-10T10:29:04.231Z,59.16
2023-05-10T10:30:20.875Z,59.15
2023-05-10T10:31:32.404Z,61.05
2023-05-10T10:32:55.318Z,61.18
2023-05-10T10:34:02.844Z,59.60
2023-05-10T10:35:05.058Z,60.30
2023-05-10T10:36:07.033Z,59.46
2023-05-10T10:37:08.691Z,58.75
2023-05-10T10:38:10.386Z,59.74
2023-05-10T10:39:12.777Z,59.91
2023-05-10T10:40:29.028Z,59.75
2023-05-10T10:41:33.705Z,60.91
2023-05-10T10:43:20.061Z,57.63
2023-05-10T10:44:27.559Z,58.12
2023-05-10T10:45:29.292Z,59.23
2023-05-10T10:46:30.936Z,57.44
2023-05-10T10:47:34.248Z,57.28
2023-05-10T10:48:36.821Z,58.03
2023-05-10T10:49:39.461Z,57.96
2023-05-10T10:50:47.809Z,59.16
2023-05-10T10:52:07.868Z,59.13
2023-05-10T10:53:12.948Z,56.69
2023-05-10T10:54:29.146Z,58.07
2023-05-10T10:55:31.322Z,56.91
2023-05-10T10:56:33.648Z,56.83
2023-05-10T10:57:42.226Z,58.40
2023-05-10T10:58:52.141Z,56.60
2023-05-10T11:00:24.594Z,55.83
2023-05-10T11:01:33.913Z,57.00
2023-05-10T11:02:43.981Z,56.65
2023-05-10T11:04:03.833Z,55.78
2023-05-10T11:05:39.297Z,55.53
2023-05-10T11:06:41.294Z,56.67
2023-05-10T11:07:56.554Z,55.38
2023-05-10T11:08:58.329Z,55.51
2023-05-10T11:10:05.850Z,55.43
2023-05-10T11:11:08.390Z,56.11
2023-05-10T11:12:10.247Z,54.94
2023-05-10T11:13:12.197Z,56.30
2023-05-10T11:14:13.799Z,55.44
2023-05-10T11:15:18.610Z,57.50
2023-05-10T11:16:25.172Z,54.96
2023-05-10T11:17:28.798Z,55.63
2023-05-10T11:18:31.272Z,55.90
2023-05-10T11:19:32.891Z,53.96
2023-05-10T11:20:40.635Z,54.10
2023-05-10T11:22:14.781Z,52.85
2023-05-10T11:23:16.959Z,52.35
2023-05-10T11:24:21.020Z,53.54
2023-05-10T11:25:27.901Z,54.48
2023-05-10T11:26:35.020Z,53.59
2023-05-10T11:27:38.679Z,53.61
2023-05-10T11:28:44.392Z,54.28
2023-05-10T11:29:46.377Z,54.34
2023-05-10T11:30:48.258Z,54.88
2023-05-10T11:31:50.621Z,53.92
2023-05-10T11:32:52.213Z,54.60
2023-05-10T11:33:55.758Z,54.19
2023-05-10T11:34:57.364Z,53.92
2023-05-10T11:35:59.042Z,56.07
2023-05-10T11:37:01.256Z,54.89
2023-05-10T11:38:02.882Z,54.00
2023-05-10T11:39:05.107Z,55.16
2023-05-10T11:40:06.974Z,56.72
2023-05-10T11:41:13.172Z,56.45
2023-05-10T11:42:14.814Z,55.71
2023-05-10T11:43:16.413Z,57.40
2023-05-10T11:44:18.043Z,56.13
2023-05-10T11:45:19.743Z,56.47
2023-05-10T11:46:24.724Z,58.11
2023-05-10T11:47:26.581Z,57.07
2023-05-10T11:48:28.208Z,57.90
2023-05-10T11:49:29.868Z,57.28
2023-05-10T11:50:31.558Z,56.48
2023-05-10T11:51:37.388Z,55.71
2023-05-10T11:52:39.001Z,54.97
2023-05-10T11:53:40.647Z,54.33
2023-05-10T11:54:55.899Z,54.63
2023-05-10T11:56:04.184Z,55.17
2023-05-10T11:57:06.141Z,56.01
2023-05-10T11:58:07.747Z,57.00
2023-05-10T11:59:09.504Z,56.70
2023-05-10T12:00:11.943Z,58.02
2023-05-10T12:01:13.359Z,57.30
2023-05-10T12:02:15.269Z,58.22
2023-05-10T12:03:17.232Z,59.61
2023-05-10T12:04:19.192Z,59.94
2023-05-10T12:05:21.026Z,61.48
2023-05-10T12:06:22.891Z,61.08
2023-05-10T12:07:24.538Z,62.56
2023-05-10T12:08:28.069Z,64.01
2023-05-10T12:09:40.079Z,63.32
2023-05-10T12:10:45.666Z,65.75
2023-05-10T12:11:47.269Z,64.97
2023-05-10T12:12:49.264Z,67.76
2023-05-10T12:13:51.274Z,68.46
2023-05-10T12:14:52.911Z,69.15
2023-05-10T12:15:54.533Z,70.40
2023-05-10T12:16:58.291Z,69.56
2023-05-10T12:18:00.816Z,70.86
2023-05-10T12:19:02.569Z,71.15
2023-05-10T12:20:24.888Z,70.04
2023-05-10T12:21:27.356Z,69.25
2023-05-10T12:22:29.133Z,69.38
2023-05-10T12:23:30.764Z,69.58
2023-05-10T12:24:36.490Z,70.97
2023-05-10T12:25:39.033Z,70.48
2023-05-10T12:26:40.785Z,71.90
2023-05-10T12:27:42.637Z,69.23
2023-05-10T12:28:44.300Z,69.84
2023-05-10T12:29:46.030Z,69.77
2023-05-10T12:30:47.696Z,70.36
2023-05-10T12:32:00.486Z,68.78
2023-05-10T12:33:04.543Z,67.82
2023-05-10T12:34:06.192Z,67.44
2023-05-10T12:35:08.753Z,68.07
2023-05-10T12:36:14.838Z,69.07
2023-05-10T12:37:16.448Z,68.05
2023-05-10T12:38:34.420Z,67.06
2023-05-10T12:39:43.610Z,67.67
2023-05-10T12:40:45.395Z,66.27
2023-05-10T12:41:47.049Z,68.33
2023-05-10T12:42:49.753Z,66.75
2023-05-10T12:43:52.376Z,66.49
2023-05-10T12:44:57.755Z,66.00
2023-05-10T12:45:59.730Z,63.96
2023-05-10T12:47:01.322Z,65.25
2023-05-10T12:48:03.028Z,63.22
2023-05-10T12:49:09.118Z,64.60
2023-05-10T12:50:12.069Z,65.01
2023-05-10T12:51:16.655Z,66.19
2023-05-10T12:52:18.321Z,65.05
2023-05-10T12:53:20.003Z,64.23
2023-05-10T12:54:21.580Z,63.88
2023-05-10T12:55:23.278Z,62.70
2023-05-10T12:56:25.036Z,63.04
2023-05-10T12:57:26.664Z,63.05
2023-05-10T12:58:35.501Z,61.95
2023-05-10T12:59:38.308Z,62.33
2023-05-10T13:00:40.023Z,62.61
2023-05-10T13:01:41.658Z,60.46
2023-05-10T13:02:43.303Z,60.82
2023-05-10T13:03:45.044Z,62.37
2023-05-10T13:04:48.820Z,62.23
2023-05-10T13:05:51.899Z,59.44
2023-05-10T13:06:53.596Z,61.35
2023-05-10T13:07:55.375Z,62.50
2023-05-10T13:08:58.549Z,59.75
2023-05-10T13:10:00.413Z,63.21
2023-05-10T13:11:03.000Z,61.21
2023-05-10T13:12:04.672Z,60.08
2023-05-10T13:13:06.362Z,60.39
2023-05-10T13:14:07.991Z,61.11
2023-05-10T13:15:10.002Z,62.29
2023-05-10T13:16:11.598Z,62.80
2023-05-10T13:17:13.225Z,63.82
2023-05-10T13:18:14.990Z,65.82
2023-05-10T13:19:16.991Z,65.84
2023-05-10T13:20:19.105Z,65.55
2023-05-10T13:21:21.005Z,65.99
2023-05-10T13:22:32.563Z,66.31
2023-05-10T13:23:41.179Z,66.78
2023-05-10T13:24:42.776Z,67.73
2023-05-10T13:25:44.361Z,68.95
2023-05-10T13:26:45.952Z,68.99
2023-05-10T13:27:47.524Z,69.40
2023-05-10T13:28:49.860Z,69.06
2023-05-10T13:29:51.579Z,70.69
2023-05-10T13:30:53.180Z,69.97
2023-05-10T13:31:55.014Z,69.76
2023-05-10T13:32:56.709Z,70.33
2023-05-10T13:33:58.333Z,68.81
2023-05-10T13:34:59.955Z,68.68
2023-05-10T13:36:01.664Z,71.07
2023-05-10T13:37:03.298Z,70.36
2023-05-10T13:38:04.936Z,70.88
2023-05-10T13:39:06.627Z,72.01
2023-05-10T13:40:08.793Z,71.10